Station: Hindmarsh Island  

  Atmospheric Gas Attenuation - ITU Rec 676-11   ----------------- dB/100km -----------------
Date Time Temp RH % AH g/m3 Dew Point Wind Direction Speed kph Gust kph Barometer mB Rainfall Since 9am 24GHz 47GHz 76GHz 122GHz 134GHz 241GHz
07/05 21:20 14.5 65 8.08 8 28 35 1029.8 0 18.4 25.5 38.1 99.7 92.0 316.2
07/05 21:10 14.6 65 8.13 8.1 28 32 1029.9 0 18.5 25.5 38.3 100.1 92.6 318.1
07/05 21:00 14.3 63 7.74 7.4 32 39 1029.9 0 17.7 25.0 36.9 96.4 87.9 301.6
07/05 20:50 14.1 64 7.77 7.4 32 37 1030 0 17.8 25.1 37.1 97.0 88.5 303.7
07/05 20:40 14.4 64 7.91 7.7 35 39 1029.9 0 18.1 25.2 37.5 98.1 90.0 308.9
07/05 20:30 14.1 66 8.01 7.9 33 44 1029.9 0 18.3 25.5 38.0 99.5 91.6 314.6
07/05 20:20 13.6 78 9.18 9.8 26 28 1030 0 20.8 27.5 43.0 112.8 107.9 371.5
07/05 20:10 13.4 80 9.3 10 19 20 1030.1 0 21.1 27.8 43.7 114.5 109.8 378.2
07/05 20:00 13.3 80 9.24 9.9 20 28 1030 0 21.0 27.7 43.5 114.0 109.1 375.8
07/05 19:50 13.1 82 9.36 10.1 19 20 1030.1 0 21.2 28.0 44.1 115.6 111.1 382.6
07/05 19:40 12.9 84 9.47 10.3 22 26 1030.2 0 21.5 28.3 44.7 117.2 112.9 388.9
07/05 19:30 12.9 83 9.36 10.1 30 44 1030.3 0 21.2 28.1 44.2 115.9 111.4 383.6
07/05 19:20 13.8 75 8.94 9.5 33 41 1030.3 0 20.3 27.1 42.0 109.9 104.4 359.2
07/05 19:10 13.8 72 8.58 8.8 35 41 1030.1 0 19.5 26.5 40.5 106.0 99.5 342.2
07/05 19:00 13.6 73 8.59 8.9 33 43 1030.1 0 19.6 26.6 40.6 106.4 99.9 343.5
07/05 18:50 14.5 65 8.08 8 33 39 1030.1 0 18.4 25.5 38.1 99.8 92.1 316.2
07/05 18:40 14.6 61 7.63 7.2 26 32 1030.1 0 17.5 24.8 36.3 94.9 86.2 295.6
07/05 18:30 14.6 59 7.38 6.7 32 39 1029.9 0 16.9 24.4 35.4 92.3 83.0 284.4
07/05 18:20 14.5 59 7.34 6.6 28 32 1030 0 16.9 24.3 35.2 92.1 82.6 283.0
07/05 18:10 14.5 58 7.21 6.3 33 39 1029.8 0 16.6 24.1 34.7 90.7 80.9 277.2
07/05 18:00 14.5 58 7.21 6.3 32 41 1029.7 0 16.6 24.1 34.7 90.7 80.9 277.2
07/05 17:50 13.9 64 7.67 7.2 32 35 1029.7 0 17.6 25.0 36.8 96.2 87.4 299.9
07/05 17:40 13.3 72 8.32 8.4 19 20 1029.9 0 19.0 26.2 39.7 103.8 96.7 332.2
07/05 17:30 13.8 69 8.22 8.2 32 39 1029.7 0 18.8 25.9 39.0 102.1 94.7 325.4
07/05 17:20 13.7 67 7.93 7.7 33 39 1029.6 0 18.2 25.5 37.9 99.1 91.0 312.4
07/05 17:10 13.9 70 8.39 8.5 32 39 1029.7 0 19.1 26.1 39.6 103.8 96.8 332.8
07/05 17:00 13.5 73 8.54 8.8 24 32 1029.8 0 19.5 26.5 40.4 105.9 99.3 341.6
07/05 16:50 13.7 70 8.29 8.3 35 43 1029.7 0 18.9 26.0 39.3 103.0 95.8 329.0
07/05 16:40 14.5 61 7.59 7.1 30 35 1029.6 0 17.4 24.7 36.2 94.6 85.7 294.0
07/05 16:30 14.5 63 7.84 7.5 30 37 1029.7 0 17.9 25.1 37.2 97.2 88.9 305.3
07/05 16:20 14.6 64 8.01 7.9 28 32 1029.6 0 18.3 25.3 37.8 98.8 91.0 312.5
07/05 16:10 14.4 60 7.42 6.7 30 32 1029.6 0 17.0 24.5 35.6 93.0 83.7 286.8
07/05 16:00 15 65 8.33 8.5 26 33 1029.6 0 18.9 25.7 38.9 101.7 94.7 325.5
07/05 15:50 15.4 61 8.01 7.9 26 33 1029.5 0 18.2 25.1 37.4 97.8 90.1 309.4
07/05 15:40 15 64 8.21 8.3 22 28 1029.6 0 18.7 25.5 38.4 100.4 93.1 320.0
07/05 15:30 13.7 65 7.7 7.2 24 35 1029.6 0 17.7 25.1 37.0 96.7 88.0 302.0
07/05 15:20 14.1 65 7.89 7.6 28 32 1029.7 0 18.0 25.3 37.6 98.2 90.0 309.1
07/05 15:10 14.3 66 8.11 8 39 43 1029.6 0 18.5 25.6 38.3 100.3 92.7 318.3
07/05 15:00 14.5 61 7.59 7.1 24 41 1029.6 0 17.4 24.7 36.2 94.6 85.7 294.0
07/05 14:50 14.7 56 7.05 6 33 44 1029.5 0 16.2 23.8 34.0 88.8 78.7 269.4
07/05 14:40 15.2 55 7.14 6.2 30 32 1029.5 0 16.4 23.8 34.2 89.2 79.3 271.7
07/05 14:30 15.3 53 6.92 5.8 32 41 1029.5 0 15.9 23.5 33.3 86.9 76.5 261.8
07/05 14:20 15.6 54 7.18 6.3 30 32 1029.6 0 16.5 23.8 34.2 89.2 79.4 272.1
07/05 14:10 16 53 7.22 6.4 30 35 1029.6 0 16.5 23.7 34.1 89.1 79.5 272.5
07/05 14:00 15.4 53 6.96 5.9 35 43 1029.6 0 16.0 23.5 33.4 87.2 76.9 263.2
07/05 13:50 15.4 61 8.01 7.9 33 39 1029.6 0 18.2 25.1 37.4 97.9 90.1 309.4
07/05 13:40 15 61 7.82 7.5 30 35 1029.6 0 17.9 24.9 36.9 96.4 88.1 302.4
07/05 13:30 14.7 65 8.18 8.2 20 30 1029.8 0 18.6 25.6 38.4 100.5 93.1 319.9
07/05 13:20 15.2 63 8.18 8.2 19 22 1029.8 0 18.6 25.4 38.2 99.9 92.5 317.9
07/05 13:10 15.4 59 7.75 7.4 22 30 1029.9 0 17.7 24.7 36.4 95.2 86.8 297.9
07/05 13:00 16 57 7.77 7.5 20 32 1029.9 0 17.7 24.6 36.2 94.7 86.4 296.5
07/05 12:50 15.2 59 7.66 7.2 20 26 1029.9 0 17.5 24.6 36.2 94.5 85.9 294.6
07/05 12:40 14.7 59 7.43 6.8 24 30 1030.1 0 17.0 24.4 35.5 92.8 83.5 286.3
07/05 12:30 15.1 57 7.35 6.7 30 43 1030.1 0 16.9 24.2 35.0 91.5 82.1 281.3
07/05 12:20 15 57 7.31 6.6 32 35 1030.2 0 16.8 24.2 34.9 91.2 81.7 280.0
07/05 12:10 15.3 57 7.44 6.8 33 37 1030.3 0 17.0 24.3 35.3 92.2 83.0 284.6
07/05 12:00 15.1 55 7.1 6.1 33 39 1030.3 0 16.3 23.8 34.1 89.0 79.0 270.5
07/05 11:50 16 51 6.95 5.9 32 37 1030.3 0 16.0 23.3 33.2 86.5 76.3 261.0
07/05 11:40 16.2 51 7.03 6.1 32 35 1030.3 0 16.1 23.4 33.4 87.1 77.0 263.8
07/05 11:30 15.3 53 6.92 5.8 30 35 1030.4 0 15.9 23.5 33.3 87.0 76.6 262.0
07/05 11:20 15.6 54 7.18 6.3 30 35 1030.3 0 16.5 23.8 34.2 89.2 79.5 272.2
07/05 11:10 15.2 56 7.27 6.5 24 30 1030.3 0 16.7 24.0 34.7 90.6 81.0 277.5
07/05 11:00 15.2 55 7.14 6.2 30 39 1030.2 0 16.4 23.8 34.2 89.3 79.4 271.8
07/05 10:50 15 52 6.67 5.2 30 35 1030.2 0 15.4 23.2 32.5 84.8 73.8 252.2
07/05 10:40 15.5 51 6.74 5.4 33 39 1030.1 0 15.6 23.2 32.6 84.9 74.2 253.6
07/05 10:30 15.3 54 7.05 6.1 35 41 1030.1 0 16.2 23.7 33.8 88.2 78.2 267.6
07/05 10:20 15.1 51 6.58 5 37 39 1029.9 0 15.2 23.0 32.1 83.8 72.6 247.9
07/05 10:10 14.8 57 7.22 6.4 28 32 1030 0 16.6 24.1 34.7 90.5 80.8 276.7
07/05 10:00 14.1 58 7.04 6 35 43 1030 0 16.2 24.0 34.3 89.5 79.2 271.1
07/05 09:50 14.6 55 6.88 5.7 39 44 1029.8 0 15.9 23.6 33.5 87.3 76.7 262.4
07/05 09:40 14.4 52 6.43 4.7 37 39 1029.8 0 14.9 23.0 31.9 83.0 71.4 243.6
07/05 09:30 15 52 6.67 5.2 30 35 1030 0 15.4 23.2 32.5 84.8 73.8 252.1
07/05 09:20 14.4 48 5.93 3.5 33 35 1030 0 13.9 22.2 30.0 78.1 65.3 222.5
07/05 09:10 14.3 47 5.77 3.2 35 39 1029.8 0 13.6 22.0 29.5 76.7 63.5 216.0
07/05 09:00 14.1 53 6.43 4.7 32 44 1029.9 0 15.0 23.0 32.0 83.3 71.7 244.6
07/05 08:50 13.4 52 6.05 3.8 33 35 1029.7 2.2 14.2 22.6 30.8 80.3 67.6 230.3
07/05 08:40 13.6 51 6 3.7 32 35 1029.6 2.2 14.1 22.5 30.6 79.6 66.8 227.6
07/05 08:30 13.7 52 6.16 4 35 41 1029.4 2.2 14.4 22.7 31.1 81.0 68.7 234.1
07/05 08:20 13.6 50 5.88 3.4 39 43 1029.3 2.2 13.8 22.3 30.1 78.4 65.4 222.4
07/05 08:10 13.5 54 6.32 4.4 35 39 1029.2 2.2 14.7 23.0 31.8 82.8 70.8 241.5
07/05 08:00 13.4 56 6.51 4.8 33 41 1029.1 2.2 15.2 23.3 32.5 84.8 73.2 250.0
07/05 07:50 13.2 58 6.66 5.1 33 39 1028.9 2.2 15.5 23.6 33.2 86.5 75.3 257.2
07/05 07:40 13.1 55 6.28 4.3 39 43 1028.7 2.2 14.7 23.0 31.8 82.8 70.6 240.9
07/05 07:30 13.3 56 6.47 4.7 35 43 1028.6 2.2 15.1 23.3 32.4 84.4 72.8 248.5
07/05 07:20 13 56 6.35 4.4 32 35 1028.6 2.2 14.8 23.1 32.1 83.5 71.6 244.2
07/05 07:10 13 60 6.8 5.4 32 35 1028.4 2.2 15.8 23.8 33.8 88.1 77.2 263.9
07/05 07:00 13.2 63 7.23 6.3 37 46 1028.2 2.2 16.7 24.4 35.3 92.3 82.4 282.3
07/05 06:50 13 61 6.92 5.7 41 43 1028 2.2 16.0 24.0 34.2 89.3 78.7 269.1
07/05 06:40 13.1 61 6.96 5.8 37 41 1027.9 2.2 16.1 24.0 34.3 89.6 79.1 270.5
07/05 06:30 13.2 62 7.12 6.1 37 48 1027.6 2.2 16.5 24.2 34.9 91.1 81.0 277.2
07/05 06:20 13.3 62 7.16 6.2 35 39 1027.7 2.2 16.5 24.3 35.0 91.4 81.4 278.7
07/05 06:10 13.3 62 7.16 6.2 37 41 1027.5 2.2 16.5 24.3 35.0 91.4 81.4 278.6
07/05 06:00 13.3 62 7.16 6.2 35 46 1027.4 2.2 16.5 24.3 35.0 91.3 81.4 278.6
07/05 05:50 13.1 64 7.3 6.5 37 41 1027.4 2.2 16.8 24.5 35.6 93.0 83.4 285.6
07/05 05:40 13 63 7.15 6.1 39 44 1027.4 2.2 16.5 24.3 35.1 91.6 81.6 279.2
07/05 05:30 12.9 67 7.55 6.9 41 52 1027.3 2.2 17.4 25.0 36.7 95.9 86.8 297.6
07/05 05:20 13.3 68 7.86 7.5 39 46 1027.2 2.2 18.0 25.4 37.7 98.6 90.4 310.2
07/05 05:10 13.1 63 7.19 6.2 41 44 1027.1 2.2 16.6 24.4 35.2 91.9 81.9 280.6
07/05 05:00 13 69 7.83 7.5 37 46 1027.2 2.2 18.0 25.4 37.7 98.7 90.3 310.0
07/05 04:50 12.7 67 7.46 6.7 41 44 1027 2.2 17.2 24.9 36.4 95.1 85.8 294.2

Last Refresh: 07-May-2026 21:24:15

Bureau of Meteorology